Wessington, South Dakota
Current Conditions -  °F | °C
As of 11:55 PM on Thursday 27 Nov 2014 (Local Time) from KHON Reporting Station
Clear Clear  
Wind Chill:   Ceiling: Unl
Heat Index: 18°   Visibility: 10mi
Dew Point: 12°   Wind: 14mph
Humidity: 78%   Direction: 150°SSE
Pressure: 29.91"   Gusts: NA
Location:  44.45°N, 98.7°W
Report Text: KHON 280555Z AUTO 15012KT 10SM CLR M08/M11 A2991 RMK AO2 SLP153 T10781111 11078 21106 410781211 58030
Loading
Personal Weather Stations






























Interactive Weather Map New forecast layout! Learn more

10-Day Weather Forecast

Advertisements
Track Severe Weather on mobile